createdAt,value
2023-04-15T00:01:10.565Z,20.40
2023-04-15T00:03:37.500Z,20.40
2023-04-15T00:06:04.508Z,20.40
2023-04-15T00:08:31.497Z,20.40
2023-04-15T00:11:02.675Z,20.30
2023-04-15T00:13:29.668Z,20.30
2023-04-15T00:15:56.442Z,20.30
2023-04-15T00:18:23.923Z,20.30
2023-04-15T00:20:50.612Z,20.30
2023-04-15T00:23:17.977Z,20.20
2023-04-15T00:25:44.873Z,20.20
2023-04-15T00:28:11.651Z,20.20
2023-04-15T00:30:38.872Z,20.20
2023-04-15T00:33:05.676Z,20.20
2023-04-15T00:35:32.812Z,20.20
2023-04-15T00:37:59.855Z,20.10
2023-04-15T00:40:27.852Z,20.10
2023-04-15T00:42:55.071Z,20.10
2023-04-15T00:45:22.024Z,20.10
2023-04-15T00:47:49.132Z,20.10
2023-04-15T00:50:15.860Z,20.00
2023-04-15T00:52:42.624Z,20.00
2023-04-15T00:55:09.746Z,20.00
2023-04-15T00:57:36.752Z,20.00
2023-04-15T01:00:13.479Z,19.90
2023-04-15T01:02:40.562Z,19.90
2023-04-15T01:05:08.530Z,19.90
2023-04-15T01:07:35.283Z,19.90
2023-04-15T01:10:04.969Z,19.80
2023-04-15T01:12:33.791Z,19.80
2023-04-15T01:15:01.023Z,19.90
2023-04-15T01:17:28.212Z,19.80
2023-04-15T01:19:57.861Z,19.80
2023-04-15T01:22:26.632Z,19.80
2023-04-15T01:25:06.390Z,19.80
2023-04-15T01:27:35.300Z,19.80
2023-04-15T01:30:05.586Z,19.70
2023-04-15T01:32:33.049Z,19.70
2023-04-15T01:34:59.876Z,19.70
2023-04-15T01:37:27.468Z,19.70
2023-04-15T01:39:54.207Z,19.70
2023-04-15T01:42:22.663Z,19.60
2023-04-15T01:44:49.506Z,19.70
2023-04-15T01:47:16.170Z,19.60
2023-04-15T01:49:42.876Z,19.60
2023-04-15T01:52:09.674Z,19.60
2023-04-15T01:54:36.563Z,19.60
2023-04-15T01:57:03.789Z,19.60
2023-04-15T01:59:31.879Z,19.50
2023-04-15T02:01:59.985Z,19.50
2023-04-15T02:04:28.023Z,19.50
2023-04-15T02:06:54.912Z,19.50
2023-04-15T02:09:21.849Z,19.50
2023-04-15T02:11:48.800Z,19.50
2023-04-15T02:14:15.485Z,19.50
2023-04-15T02:16:42.317Z,19.40
2023-04-15T02:19:09.582Z,19.40
2023-04-15T02:21:37.921Z,19.40
2023-04-15T02:24:04.800Z,19.40
2023-04-15T02:26:34.436Z,19.40
2023-04-15T02:29:01.419Z,19.40
2023-04-15T02:31:28.388Z,19.40
2023-04-15T02:33:55.185Z,19.40
2023-04-15T02:36:21.985Z,19.30
2023-04-15T02:38:48.742Z,19.30
2023-04-15T02:41:17.776Z,19.30
2023-04-15T02:43:45.871Z,19.30
2023-04-15T02:46:14.716Z,19.30
2023-04-15T02:48:41.816Z,19.30
2023-04-15T02:51:20.608Z,19.30
2023-04-15T02:53:49.021Z,19.20
2023-04-15T02:56:17.172Z,19.20
2023-04-15T02:58:45.518Z,19.20
2023-04-15T03:01:12.653Z,19.20
2023-04-15T03:03:40.877Z,19.20
2023-04-15T03:06:08.981Z,19.20
2023-04-15T03:08:36.479Z,19.20
2023-04-15T03:11:03.786Z,19.20
2023-04-15T03:13:31.158Z,19.10
2023-04-15T03:16:00.215Z,19.10
2023-04-15T03:18:29.251Z,19.10
2023-04-15T03:20:56.188Z,19.10
2023-04-15T03:23:23.654Z,19.10
2023-04-15T03:25:50.411Z,19.10
2023-04-15T03:28:17.443Z,19.10
2023-04-15T03:30:44.210Z,19.10
2023-04-15T03:33:11.989Z,19.00
2023-04-15T03:35:39.037Z,19.00
2023-04-15T03:38:05.808Z,19.00
2023-04-15T03:40:32.543Z,19.00
2023-04-15T03:42:59.196Z,19.00
2023-04-15T03:45:26.151Z,19.00
2023-04-15T03:47:52.992Z,19.00
2023-04-15T03:50:19.730Z,19.00
2023-04-15T03:52:46.435Z,19.00
2023-04-15T03:55:13.293Z,18.90
2023-04-15T03:57:40.035Z,19.00
2023-04-15T04:00:09.319Z,18.90
2023-04-15T04:02:39.189Z,18.90
2023-04-15T04:05:06.751Z,18.90
2023-04-15T04:07:33.481Z,18.90
2023-04-15T04:10:00.119Z,18.90
2023-04-15T04:12:26.896Z,18.90
2023-04-15T04:14:53.616Z,18.90
2023-04-15T04:17:20.493Z,18.80
2023-04-15T04:19:47.179Z,18.80
2023-04-15T04:22:13.856Z,18.80
2023-04-15T04:24:40.673Z,18.80
2023-04-15T04:27:07.369Z,18.80
2023-04-15T04:29:34.056Z,18.80
2023-04-15T04:32:00.808Z,18.80
2023-04-15T04:34:27.573Z,18.70
2023-04-15T04:36:54.300Z,18.80
2023-04-15T04:39:21.166Z,18.70
2023-04-15T04:41:47.915Z,18.80
2023-04-15T04:44:14.558Z,18.70
2023-04-15T04:46:41.261Z,18.70
2023-04-15T04:49:07.956Z,18.70
2023-04-15T04:51:34.831Z,18.70
2023-04-15T04:54:03.582Z,18.70
2023-04-15T04:56:30.758Z,18.70
2023-04-15T04:58:57.488Z,18.70
2023-04-15T05:01:24.336Z,18.60
2023-04-15T05:03:51.253Z,18.60
2023-04-15T05:06:18.002Z,18.60
2023-04-15T05:08:44.984Z,18.60
2023-04-15T05:11:12.027Z,18.60
2023-04-15T05:13:38.888Z,18.60
2023-04-15T05:16:06.175Z,18.60
2023-04-15T05:18:33.330Z,18.60
2023-04-15T05:21:00.350Z,18.60
2023-04-15T05:23:27.733Z,18.50
2023-04-15T05:25:54.479Z,18.60
2023-04-15T05:28:21.275Z,18.50
2023-04-15T05:30:47.957Z,18.50
2023-04-15T05:33:14.822Z,18.50
2023-04-15T05:35:41.755Z,18.50
2023-04-15T05:38:08.490Z,18.50
2023-04-15T05:40:35.204Z,18.50
2023-04-15T05:43:01.938Z,18.50
2023-04-15T05:45:28.785Z,18.50
2023-04-15T05:47:55.666Z,18.50
2023-04-15T05:50:22.480Z,18.50
2023-04-15T05:52:49.187Z,18.50
2023-04-15T05:55:16.145Z,18.50
2023-04-15T05:57:42.823Z,18.50
2023-04-15T06:00:10.218Z,18.50
2023-04-15T06:02:37.802Z,18.50
2023-04-15T06:05:09.733Z,18.50
2023-04-15T06:07:37.750Z,18.50
2023-04-15T06:10:05.955Z,18.50
2023-04-15T06:12:32.935Z,18.50
2023-04-15T06:15:00.276Z,18.50
2023-04-15T06:17:27.475Z,18.50
2023-04-15T06:19:55.835Z,18.50
2023-04-15T06:22:23.409Z,18.50
2023-04-15T06:24:51.208Z,18.60
2023-04-15T06:27:18.089Z,18.60
2023-04-15T06:29:45.246Z,18.60
2023-04-15T06:32:12.252Z,18.60
2023-04-15T06:34:39.077Z,18.60
2023-04-15T06:37:06.581Z,18.60
2023-04-15T06:39:33.322Z,18.60
2023-04-15T06:42:00.118Z,18.60
2023-04-15T06:44:26.907Z,18.60
2023-04-15T06:46:53.632Z,18.60
2023-04-15T06:49:20.357Z,18.60
2023-04-15T06:51:47.128Z,18.60
2023-04-15T06:54:13.836Z,18.60
2023-04-15T06:56:41.892Z,18.60
2023-04-15T06:59:08.759Z,18.60
2023-04-15T07:01:35.951Z,18.60
2023-04-15T07:04:02.885Z,18.60
2023-04-15T07:06:29.661Z,18.60
2023-04-15T07:08:56.371Z,18.60
2023-04-15T07:11:23.086Z,18.70
2023-04-15T07:13:49.767Z,18.70
2023-04-15T07:16:16.459Z,18.70
2023-04-15T07:18:43.511Z,18.70
2023-04-15T07:21:10.242Z,18.70
2023-04-15T07:23:36.947Z,18.70
2023-04-15T07:26:04.002Z,18.70
2023-04-15T07:28:30.761Z,18.70
2023-04-15T07:30:57.671Z,18.70
2023-04-15T07:33:24.475Z,18.70
2023-04-15T07:35:51.332Z,18.70
2023-04-15T07:38:18.035Z,18.80
2023-04-15T07:40:44.868Z,18.80
2023-04-15T07:43:11.816Z,18.80
2023-04-15T07:45:38.531Z,18.80
2023-04-15T07:48:06.616Z,18.80
2023-04-15T07:50:33.438Z,18.80
2023-04-15T07:53:00.223Z,18.90
2023-04-15T07:55:28.231Z,18.90
2023-04-15T07:57:55.230Z,18.90
2023-04-15T08:00:22.165Z,18.90
2023-04-15T08:02:49.776Z,18.90
2023-04-15T08:05:16.942Z,18.90
2023-04-15T08:07:43.840Z,18.90
2023-04-15T08:10:11.190Z,19.00
2023-04-15T08:12:38.039Z,19.00
2023-04-15T08:15:05.667Z,19.00
2023-04-15T08:21:44.440Z,19.00
2023-04-15T08:24:18.887Z,19.00
2023-04-15T08:26:54.835Z,19.00
2023-04-15T08:29:21.602Z,19.10
2023-04-15T08:31:48.430Z,19.10
2023-04-15T08:34:15.885Z,19.10
2023-04-15T08:36:43.079Z,19.20
2023-04-15T08:39:09.739Z,19.20
2023-04-15T08:42:05.629Z,19.20
2023-04-15T08:44:35.194Z,19.20
2023-04-15T08:47:03.134Z,19.20
2023-04-15T08:49:30.491Z,19.20
2023-04-15T08:51:59.376Z,19.20
2023-04-15T08:54:27.331Z,19.20
2023-04-15T08:56:54.540Z,19.20
2023-04-15T08:59:24.422Z,19.30
2023-04-15T09:01:51.854Z,19.30
2023-04-15T09:04:18.811Z,19.30
2023-04-15T09:06:45.606Z,19.30
2023-04-15T09:09:14.113Z,19.30
2023-04-15T09:11:41.106Z,19.30
2023-04-15T09:14:07.987Z,19.30
2023-04-15T09:17:01.068Z,19.40
2023-04-15T09:19:29.545Z,19.40
2023-04-15T09:21:59.257Z,19.40
2023-04-15T09:24:33.604Z,19.40
2023-04-15T09:27:00.673Z,19.40
2023-04-15T09:29:27.794Z,19.40
2023-04-15T09:31:54.493Z,19.40
2023-04-15T09:34:21.628Z,19.40
2023-04-15T09:36:50.939Z,19.50
2023-04-15T09:39:18.166Z,19.50
2023-04-15T09:41:45.171Z,19.50
2023-04-15T09:44:38.009Z,19.50
2023-04-15T09:47:04.890Z,19.50
2023-04-15T09:49:31.622Z,19.50
2023-04-15T09:52:05.504Z,19.50
2023-04-15T09:54:35.077Z,19.50
2023-04-15T09:57:06.368Z,19.60
2023-04-15T09:59:33.160Z,19.60
2023-04-15T10:02:00.432Z,19.60
2023-04-15T10:04:28.555Z,19.60
2023-04-15T10:06:56.145Z,19.60
2023-04-15T10:09:22.935Z,19.60
2023-04-15T10:11:50.333Z,19.60
2023-04-15T10:14:18.650Z,19.60
2023-04-15T10:16:48.974Z,19.60
2023-04-15T10:19:18.617Z,19.60
2023-04-15T10:21:46.116Z,19.60
2023-04-15T10:24:13.432Z,19.70
2023-04-15T10:26:40.852Z,19.70
2023-04-15T10:29:09.547Z,19.60
2023-04-15T10:31:38.204Z,19.60
2023-04-15T10:34:06.622Z,19.60
2023-04-15T10:36:33.882Z,19.60
2023-04-15T10:39:01.399Z,19.70
2023-04-15T10:41:34.531Z,19.60
2023-04-15T10:44:01.618Z,19.70
2023-04-15T10:46:40.095Z,19.60
2023-04-15T10:49:15.207Z,19.60
2023-04-15T10:51:51.577Z,19.60
2023-04-15T10:54:27.098Z,19.60
2023-04-15T10:57:08.647Z,19.60
2023-04-15T10:59:59.632Z,19.60
2023-04-15T11:02:45.207Z,19.60
2023-04-15T11:05:16.342Z,19.60
2023-04-15T11:07:55.238Z,19.60
2023-04-15T11:10:33.626Z,19.60
2023-04-15T11:13:14.575Z,19.60
2023-04-15T11:15:46.328Z,19.60
2023-04-15T11:18:17.380Z,19.60
2023-04-15T11:20:48.420Z,19.60
2023-04-15T11:23:16.939Z,19.60
2023-04-15T11:25:47.452Z,19.60
2023-04-15T11:28:14.247Z,19.60
2023-04-15T11:30:43.258Z,19.50
2023-04-15T11:33:14.574Z,19.60
2023-04-15T11:35:42.393Z,19.60
2023-04-15T11:38:16.568Z,19.50
2023-04-15T11:40:46.779Z,19.50
2023-04-15T11:43:17.047Z,19.50
2023-04-15T11:45:54.651Z,19.50
2023-04-15T11:48:24.926Z,19.50
2023-04-15T11:51:03.195Z,19.50
2023-04-15T11:53:44.697Z,19.50
2023-04-15T11:56:17.288Z,19.50
2023-04-15T11:58:44.691Z,19.50
2023-04-15T12:01:11.865Z,19.50
2023-04-15T12:03:43.867Z,19.40
2023-04-15T12:06:24.612Z,19.50
2023-04-15T12:09:00.368Z,19.40
2023-04-15T12:11:27.135Z,19.40
2023-04-15T12:13:56.720Z,19.40
2023-04-15T12:16:24.334Z,19.40
2023-04-15T12:18:52.637Z,19.40
2023-04-15T12:21:20.531Z,19.40
2023-04-15T12:23:55.013Z,19.40
2023-04-15T12:26:30.197Z,19.40
2023-04-15T12:29:02.395Z,19.40
2023-04-15T12:31:29.487Z,19.40
2023-04-15T12:33:57.540Z,19.40
2023-04-15T12:36:24.894Z,19.40
2023-04-15T12:38:52.040Z,19.40
2023-04-15T12:41:19.893Z,19.40
2023-04-15T12:43:47.069Z,19.40
2023-04-15T12:46:15.557Z,19.40
2023-04-15T12:48:42.718Z,19.40
2023-04-15T12:51:09.459Z,19.40
2023-04-15T12:53:36.248Z,19.40
2023-04-15T12:56:03.171Z,19.40
2023-04-15T12:58:29.963Z,19.40
2023-04-15T13:00:57.330Z,19.40
2023-04-15T13:03:24.221Z,19.40
2023-04-15T13:05:51.351Z,19.40
2023-04-15T13:08:18.649Z,19.40
2023-04-15T13:10:45.468Z,19.40
2023-04-15T13:13:12.384Z,19.40
2023-04-15T13:15:39.137Z,19.40
2023-04-15T13:18:07.558Z,19.40
2023-04-15T13:20:34.338Z,19.40
2023-04-15T13:23:01.525Z,19.40
2023-04-15T13:25:28.269Z,19.40
2023-04-15T13:27:55.112Z,19.40
2023-04-15T13:30:21.937Z,19.40
2023-04-15T13:32:50.867Z,19.40
2023-04-15T13:35:17.782Z,19.40
2023-04-15T13:37:44.464Z,19.40
2023-04-15T13:40:11.759Z,19.40
2023-04-15T13:42:38.510Z,19.40
2023-04-15T13:45:06.255Z,19.40
2023-04-15T13:47:33.118Z,19.40
2023-04-15T13:49:59.867Z,19.40
2023-04-15T13:52:26.562Z,19.40
2023-04-15T13:55:18.254Z,19.40
2023-04-15T13:57:39.983Z,19.30
2023-04-15T14:00:07.744Z,19.30
2023-04-15T14:02:35.223Z,19.40
2023-04-15T14:05:02.401Z,19.30
2023-04-15T14:07:30.766Z,19.30
2023-04-15T14:09:57.465Z,19.30
2023-04-15T14:12:24.207Z,19.30
2023-04-15T14:14:50.912Z,19.30
2023-04-15T14:17:17.651Z,19.30
2023-04-15T14:19:44.365Z,19.30
2023-04-15T14:22:11.180Z,19.30
2023-04-15T14:24:38.023Z,19.30
2023-04-15T14:27:04.786Z,19.30
2023-04-15T14:29:31.595Z,19.30
2023-04-15T14:32:04.447Z,19.30
2023-04-15T14:34:38.441Z,19.30
2023-04-15T14:37:05.274Z,19.30
2023-04-15T14:39:32.072Z,19.30
2023-04-15T14:41:59.086Z,19.30
2023-04-15T14:44:25.780Z,19.30
2023-04-15T14:46:52.652Z,19.30
2023-04-15T14:49:19.890Z,19.30
2023-04-15T14:51:46.582Z,19.30
2023-04-15T14:54:13.328Z,19.30
2023-04-15T14:56:40.105Z,19.30
2023-04-15T14:59:07.339Z,19.30
2023-04-15T15:01:34.549Z,19.20
2023-04-15T15:04:01.586Z,19.20
2023-04-15T15:06:28.436Z,19.30
2023-04-15T15:08:55.191Z,19.20
2023-04-15T15:11:21.911Z,19.20
2023-04-15T15:13:48.925Z,19.20
2023-04-15T15:16:15.756Z,19.20
2023-04-15T15:18:42.528Z,19.20
2023-04-15T15:21:09.258Z,19.20
2023-04-15T15:23:35.946Z,19.20
2023-04-15T15:26:02.805Z,19.20
2023-04-15T15:28:29.597Z,19.20
2023-04-15T15:30:56.433Z,19.20
2023-04-15T15:33:23.462Z,19.20
2023-04-15T15:35:51.037Z,19.20
2023-04-15T15:38:17.798Z,19.20
2023-04-15T15:40:44.560Z,19.20
2023-04-15T15:43:11.220Z,19.20
2023-04-15T15:45:37.974Z,19.20
2023-04-15T15:48:05.097Z,19.20
2023-04-15T15:50:31.867Z,19.20
2023-04-15T15:52:59.003Z,19.20
2023-04-15T15:55:27.075Z,19.20
2023-04-15T15:57:54.344Z,19.10
2023-04-15T16:00:22.740Z,19.10
2023-04-15T16:03:06.167Z,19.10
2023-04-15T16:05:34.051Z,19.10
2023-04-15T16:08:00.811Z,19.10
2023-04-15T16:10:28.124Z,19.10
2023-04-15T16:12:54.806Z,19.10
2023-04-15T16:15:23.071Z,19.10
2023-04-15T16:17:49.879Z,19.10
2023-04-15T16:20:16.683Z,19.10
2023-04-15T16:22:43.645Z,19.10
2023-04-15T16:25:10.544Z,19.10
2023-04-15T16:27:54.090Z,19.10
2023-04-15T16:30:24.353Z,19.00
2023-04-15T16:32:51.798Z,19.00
2023-04-15T16:35:18.594Z,19.00
2023-04-15T16:37:45.315Z,19.00
2023-04-15T16:40:12.535Z,19.00
2023-04-15T16:42:39.822Z,19.00
2023-04-15T16:45:07.204Z,19.00
2023-04-15T16:47:33.900Z,19.00
2023-04-15T16:50:00.832Z,19.00
2023-04-15T16:52:28.727Z,19.00
2023-04-15T16:54:56.075Z,19.00
2023-04-15T16:57:22.864Z,19.00
2023-04-15T16:59:51.737Z,19.00
2023-04-15T17:02:18.663Z,19.00
2023-04-15T17:04:45.515Z,19.00
2023-04-15T17:07:12.261Z,18.90
2023-04-15T17:09:40.001Z,18.90
2023-04-15T17:12:07.410Z,18.90
2023-04-15T17:14:35.071Z,18.90
2023-04-15T17:17:01.883Z,19.00
2023-04-15T17:19:28.662Z,18.90
2023-04-15T17:21:55.449Z,18.90
2023-04-15T17:24:22.187Z,18.90
2023-04-15T17:26:48.890Z,18.90
2023-04-15T17:29:15.632Z,18.90
2023-04-15T17:31:42.716Z,18.90
2023-04-15T17:34:10.301Z,18.90
2023-04-15T17:36:38.385Z,18.90
2023-04-15T17:39:05.266Z,18.90
2023-04-15T17:41:32.077Z,18.80
2023-04-15T17:43:58.774Z,18.80
2023-04-15T17:46:26.549Z,18.80
2023-04-15T17:48:53.339Z,18.80
2023-04-15T17:51:20.254Z,18.80
2023-04-15T17:53:47.057Z,18.80
2023-04-15T17:56:13.730Z,18.80
2023-04-15T17:58:40.577Z,18.80
2023-04-15T18:01:07.402Z,18.80
2023-04-15T18:03:34.293Z,18.80
2023-04-15T18:06:01.322Z,18.70
2023-04-15T18:08:28.990Z,18.70
2023-04-15T18:10:56.340Z,18.80
2023-04-15T18:13:23.552Z,18.70
2023-04-15T18:15:51.348Z,18.70
2023-04-15T18:18:18.175Z,18.70
2023-04-15T18:20:44.839Z,18.70
2023-04-15T18:23:11.563Z,18.70
2023-04-15T18:25:38.380Z,18.70
2023-04-15T18:28:14.242Z,18.70
2023-04-15T18:30:41.067Z,18.60
2023-04-15T18:33:08.058Z,18.60
2023-04-15T18:35:35.215Z,18.60
2023-04-15T18:38:02.178Z,18.60
2023-04-15T18:40:28.949Z,18.60
2023-04-15T18:42:55.686Z,18.60
2023-04-15T18:45:22.397Z,18.60
2023-04-15T18:47:50.631Z,18.60
2023-04-15T18:50:17.530Z,18.60
2023-04-15T18:52:44.221Z,18.50
2023-04-15T18:55:10.942Z,18.50
2023-04-15T18:57:42.412Z,18.50
2023-04-15T19:00:11.582Z,18.60
2023-04-15T19:02:38.321Z,18.50
2023-04-15T19:05:06.251Z,18.50
2023-04-15T19:07:33.406Z,18.50
2023-04-15T19:10:00.160Z,18.50
2023-04-15T19:12:27.093Z,18.50
2023-04-15T19:14:53.967Z,18.50
2023-04-15T19:17:21.298Z,18.50
2023-04-15T19:19:48.048Z,18.50
2023-04-15T19:22:15.794Z,18.40
2023-04-15T19:24:43.050Z,18.40
2023-04-15T19:27:09.837Z,18.40
2023-04-15T19:29:36.527Z,18.40
2023-04-15T19:32:03.303Z,18.40
2023-04-15T19:34:30.038Z,18.40
2023-04-15T19:36:56.863Z,18.40
2023-04-15T19:39:24.171Z,18.40
2023-04-15T19:41:51.545Z,18.40
2023-04-15T19:44:19.171Z,18.40
2023-04-15T19:46:49.814Z,18.30
2023-04-15T19:49:16.743Z,18.30
2023-04-15T19:51:43.544Z,18.40
2023-04-15T19:54:10.216Z,18.40
2023-04-15T19:56:36.991Z,18.30
2023-04-15T19:59:04.088Z,18.30
2023-04-15T20:01:31.913Z,18.30
2023-04-15T20:03:58.979Z,18.30
2023-04-15T20:06:28.413Z,18.30
2023-04-15T20:08:55.348Z,18.30
2023-04-15T20:11:22.098Z,18.30
2023-04-15T20:13:48.808Z,18.20
2023-04-15T20:16:16.043Z,18.20
2023-04-15T20:19:09.295Z,18.20
2023-04-15T20:21:36.505Z,18.20
2023-04-15T20:24:03.499Z,18.20
2023-04-15T20:26:30.711Z,18.20
2023-04-15T20:28:59.079Z,18.20
2023-04-15T20:31:25.985Z,18.20
2023-04-15T20:33:53.051Z,18.20
2023-04-15T20:36:19.777Z,18.20
2023-04-15T20:38:46.556Z,18.20
2023-04-15T20:41:13.306Z,18.20
2023-04-15T20:43:40.048Z,18.20
2023-04-15T20:46:17.881Z,18.20
2023-04-15T20:48:48.145Z,18.20
2023-04-15T20:51:15.131Z,18.20
2023-04-15T20:53:42.032Z,18.20
2023-04-15T20:56:08.795Z,18.20
2023-04-15T20:58:35.524Z,18.20
2023-04-15T21:01:02.408Z,18.20
2023-04-15T21:03:29.371Z,18.20
2023-04-15T21:05:56.154Z,18.20
2023-04-15T21:08:29.043Z,18.20
2023-04-15T21:10:56.855Z,18.20
2023-04-15T21:13:24.100Z,18.20
2023-04-15T21:15:54.418Z,18.20
2023-04-15T21:18:22.281Z,18.20
2023-04-15T21:21:02.527Z,18.20
2023-04-15T21:23:29.873Z,18.20
2023-04-15T21:25:56.892Z,18.10
2023-04-15T21:28:23.663Z,18.20
2023-04-15T21:30:50.687Z,18.10
2023-04-15T21:33:20.213Z,18.20
2023-04-15T21:35:46.975Z,18.10
2023-04-15T21:38:13.920Z,18.20
2023-04-15T21:40:40.924Z,18.10
2023-04-15T21:43:08.094Z,18.10
2023-04-15T21:45:35.593Z,18.10
2023-04-15T21:48:07.397Z,18.10
2023-04-15T21:50:38.696Z,18.10
2023-04-15T21:53:08.175Z,18.10
2023-04-15T21:55:35.740Z,18.10
2023-04-15T21:58:02.443Z,18.10
2023-04-15T22:00:29.583Z,18.10
2023-04-15T22:02:56.413Z,18.10
2023-04-15T22:05:23.185Z,18.00
2023-04-15T22:07:49.853Z,18.00
2023-04-15T22:10:16.521Z,18.00
2023-04-15T22:12:43.302Z,18.00
2023-04-15T22:15:10.278Z,18.00
2023-04-15T22:17:36.975Z,18.00
2023-04-15T22:20:04.125Z,18.00
2023-04-15T22:22:43.410Z,18.00
2023-04-15T22:25:11.600Z,18.00
2023-04-15T22:27:38.418Z,18.00
2023-04-15T22:30:06.096Z,18.00
2023-04-15T22:32:32.819Z,18.00
2023-04-15T22:35:01.358Z,18.00
2023-04-15T22:37:31.265Z,17.90
2023-04-15T22:39:58.147Z,18.00
2023-04-15T22:42:24.896Z,17.90
2023-04-15T22:44:51.617Z,17.90
2023-04-15T22:47:19.125Z,17.90
2023-04-15T22:49:45.923Z,17.90
2023-04-15T22:52:23.418Z,17.90
2023-04-15T22:54:56.519Z,17.90
2023-04-15T22:57:23.239Z,17.90
2023-04-15T22:59:49.948Z,17.90
2023-04-15T23:02:16.910Z,17.90
2023-04-15T23:04:43.896Z,17.80
2023-04-15T23:07:11.118Z,17.80
2023-04-15T23:09:38.853Z,17.90
2023-04-15T23:12:06.268Z,17.80
2023-04-15T23:14:33.010Z,17.80
2023-04-15T23:16:59.817Z,17.90
2023-04-15T23:19:26.476Z,17.80
2023-04-15T23:21:54.351Z,17.90
2023-04-15T23:24:21.126Z,17.80
2023-04-15T23:26:47.909Z,17.80
2023-04-15T23:29:14.615Z,17.80
2023-04-15T23:31:43.995Z,17.80
2023-04-15T23:34:10.690Z,17.80
2023-04-15T23:36:37.661Z,17.80
2023-04-15T23:39:04.413Z,17.80
2023-04-15T23:41:31.077Z,17.80
2023-04-15T23:43:57.777Z,17.80
2023-04-15T23:46:24.778Z,17.70
2023-04-15T23:48:51.622Z,17.80
2023-04-15T23:51:18.404Z,17.70
2023-04-15T23:53:45.416Z,17.70
2023-04-15T23:56:12.188Z,17.70
2023-04-15T23:58:38.912Z,17.70
